Time;durP1;ratioP1;P1;durP2;ratioP2;P2;SDS_P1;SDS_P2;PMS_P1;PMS_P2;Temp;Humidity;BMP_temperature;BMP_pressure;BME280_temperature;BME280_humidity;BME280_pressure;Samples;Min_cycle;Max_cycle;Signal;HPM_P1;HPM_P2
2023/05/09 00:01:58;;;;;;;5.30;3.17;;;;;;;10.49;91.07;100507.91;10459208;28;20508;-69
2023/05/09 00:06:58;;;;;;;3.58;2.83;;;;;;;10.55;90.78;100510.91;10458648;28;20497;-70
2023/05/09 00:12:00;;;;;;;4.20;3.00;;;;;;;10.52;90.57;100512.06;10458770;28;20048;-70
2023/05/09 00:17:00;;;;;;;5.40;2.97;;;;;;;10.55;90.51;100514.41;10457597;28;20048;-70
2023/05/09 00:22:01;;;;;;;8.20;3.15;;;;;;;10.37;90.47;100489.81;10482227;28;20106;-70
2023/05/09 00:27:02;;;;;;;6.03;3.30;;;;;;;10.47;90.54;100512.59;10499421;28;20066;-70
2023/05/09 00:32:03;;;;;;;5.13;3.10;;;;;;;10.13;90.63;100462.19;10499420;28;20041;-70
2023/05/09 00:37:03;;;;;;;6.65;3.15;;;;;;;10.40;90.78;100498.28;10498598;28;20102;-70
2023/05/09 00:42:04;;;;;;;9.60;3.88;;;;;;;10.36;90.94;100499.59;10498459;28;20445;-69
2023/05/09 00:47:08;;;;;;;4.63;2.95;;;;;;;10.39;91.32;100499.28;10497650;28;20089;-70
2023/05/09 00:52:09;;;;;;;6.28;3.47;;;;;;;10.23;90.67;100476.16;10497684;28;20044;-70
2023/05/09 00:57:10;;;;;;;5.13;3.70;;;;;;;10.23;91.04;100505.34;10497415;28;20110;-70
2023/05/09 01:02:11;;;;;;;11.93;4.57;;;;;;;10.03;91.26;100458.84;10497515;28;20050;-69
2023/05/09 01:07:34;;;;;;;7.70;4.57;;;;;;;10.23;92.45;100492.09;10497425;28;20040;-70
2023/05/09 01:12:50;;;;;;;7.75;4.50;;;;;;;10.16;92.21;100501.66;10497321;28;20484;-70
2023/05/09 01:17:57;;;;;;;10.55;4.70;;;;;;;9.27;92.07;100356.25;10496459;28;20036;-70
2023/05/09 01:23:38;;;;;;;8.02;4.85;;;;;;;10.28;92.59;100510.19;10496478;28;20098;-70
2023/05/09 01:29:13;;;;;;;6.75;4.13;;;;;;;10.20;93.05;100512.78;10495960;28;20090;-70
2023/05/09 01:34:17;;;;;;;6.50;3.72;;;;;;;9.98;92.07;100504.44;10496863;28;20091;-70
2023/05/09 01:39:18;;;;;;;14.15;4.72;;;;;;;9.95;92.07;100501.28;10496518;28;20492;-70
2023/05/09 01:44:22;;;;;;;10.75;4.70;;;;;;;9.91;92.07;100505.25;10496834;28;20496;-70
2023/05/09 01:49:24;;;;;;;19.02;5.18;;;;;;;10.15;91.95;100534.53;10496238;28;20040;-70
2023/05/09 01:54:26;;;;;;;12.27;4.25;;;;;;;10.01;91.62;100509.41;10495687;28;20472;-70
2023/05/09 01:59:28;;;;;;;7.00;4.40;;;;;;;10.08;91.85;100512.28;10496612;28;20528;-69
2023/05/09 02:04:31;;;;;;;5.63;4.20;;;;;;;9.51;91.56;100435.09;10510806;28;20075;-70
2023/05/09 02:09:32;;;;;;;6.00;3.70;;;;;;;10.07;91.69;100531.84;10495918;28;20397;-70
2023/05/09 02:14:33;;;;;;;17.73;4.70;;;;;;;9.94;91.44;100508.41;10496125;28;20052;-69
2023/05/09 02:19:35;;;;;;;7.15;3.75;;;;;;;10.06;91.46;100549.59;10494373;28;20033;-69
2023/05/09 02:24:36;;;;;;;5.57;3.72;;;;;;;9.92;91.67;100544.88;10495224;28;20123;-70
2023/05/09 02:29:44;;;;;;;10.25;3.90;;;;;;;9.99;92.11;100551.22;10495492;28;20135;-70
2023/05/09 02:34:47;;;;;;;5.45;3.55;;;;;;;9.81;91.95;100538.03;10495909;28;20492;-70
2023/05/09 02:39:48;;;;;;;7.05;3.85;;;;;;;9.87;92.08;100575.53;10496818;28;20588;-69
2023/05/09 02:44:52;;;;;;;6.97;3.72;;;;;;;9.80;92.10;100556.75;10503178;28;20094;-69
2023/05/09 02:49:53;;;;;;;6.85;3.45;;;;;;;9.90;91.89;100577.84;10473162;28;20080;-70
2023/05/09 02:54:54;;;;;;;5.18;3.58;;;;;;;9.64;92.00;100559.31;10460859;28;20069;-70
2023/05/09 02:59:55;;;;;;;4.20;3.03;;;;;;;9.87;92.25;100580.81;10494254;28;20068;-70
2023/05/09 03:04:56;;;;;;;21.52;4.28;;;;;;;9.74;91.76;100581.25;10501452;28;20037;-69
2023/05/09 03:09:57;;;;;;;7.28;3.40;;;;;;;9.91;91.73;100601.59;10501871;28;20036;-70
2023/05/09 03:14:57;;;;;;;6.53;3.45;;;;;;;9.94;91.74;100605.75;10502412;28;20404;-70
2023/05/09 03:19:58;;;;;;;9.70;4.53;;;;;;;9.83;91.60;100606.84;10483380;28;20052;-70
2023/05/09 03:24:59;;;;;;;6.75;3.35;;;;;;;9.21;91.44;100521.25;10460011;28;20500;-70
2023/05/09 03:30:00;;;;;;;4.40;3.40;;;;;;;9.41;91.54;100543.91;10492516;28;20052;-70
2023/05/09 03:35:01;;;;;;;6.57;3.67;;;;;;;9.38;91.66;100529.16;10500644;28;20045;-70
2023/05/09 03:40:02;;;;;;;9.13;3.70;;;;;;;9.95;91.46;100607.41;10489216;28;20102;-70
2023/05/09 03:45:03;;;;;;;6.20;2.90;;;;;;;9.92;91.56;100605.09;10500335;28;20750;-70
2023/05/09 03:50:05;;;;;;;7.32;2.67;;;;;;;9.96;91.06;100615.25;10481872;28;20374;-70
2023/05/09 03:55:06;;;;;;;5.47;3.10;;;;;;;9.84;90.82;100611.16;10464892;28;20501;-70
2023/05/09 04:00:09;;;;;;;7.25;2.95;;;;;;;9.86;90.48;100608.38;10458095;28;20041;-70
2023/05/09 04:05:10;;;;;;;4.68;2.72;;;;;;;8.90;90.45;100450.13;10471608;28;20040;-70
2023/05/09 04:10:10;;;;;;;6.80;3.05;;;;;;;9.74;90.77;100576.78;10457002;28;20040;-70
2023/05/09 04:15:11;;;;;;;12.38;4.85;;;;;;;9.73;90.35;100569.81;10484545;28;20131;-70
2023/05/09 04:20:12;;;;;;;8.10;4.22;;;;;;;10.02;90.21;100604.00;10485833;28;20512;-69
2023/05/09 04:25:13;;;;;;;6.30;3.03;;;;;;;10.05;90.03;100598.38;10462351;28;20154;-70
2023/05/09 04:30:14;;;;;;;7.82;3.22;;;;;;;10.16;89.76;100601.72;10494692;28;20044;-71
2023/05/09 04:35:15;;;;;;;8.68;2.90;;;;;;;10.07;89.18;100584.91;10459986;28;20036;-70
2023/05/09 04:40:16;;;;;;;7.88;2.83;;;;;;;10.30;89.43;100585.22;10483825;28;20048;-71
2023/05/09 04:45:17;;;;;;;5.38;2.60;;;;;;;10.41;88.83;100602.69;10483606;28;20087;-70
2023/05/09 04:50:18;;;;;;;13.18;3.08;;;;;;;10.32;88.57;100577.94;10458026;28;20071;-71
2023/05/09 04:55:20;;;;;;;4.75;2.88;;;;;;;10.00;88.17;100523.69;10472251;28;20092;-71
2023/05/09 05:00:20;;;;;;;7.40;3.38;;;;;;;10.50;87.97;100591.94;10481422;28;20160;-71
2023/05/09 05:05:22;;;;;;;6.18;2.88;;;;;;;10.68;87.39;100597.13;10485211;28;20059;-71
2023/05/09 05:10:23;;;;;;;5.57;2.80;;;;;;;10.76;87.28;100604.28;10496682;28;20090;-71
2023/05/09 05:15:24;;;;;;;5.13;3.10;;;;;;;9.99;86.92;100442.41;10495590;28;20086;-71
2023/05/09 05:20:25;;;;;;;4.57;2.85;;;;;;;11.01;86.28;100588.38;10497169;28;20036;-71
2023/05/09 05:25:26;;;;;;;4.43;2.75;;;;;;;10.95;86.06;100590.72;10496165;28;20400;-71
2023/05/09 05:30:27;;;;;;;12.80;3.35;;;;;;;10.85;85.94;100568.75;10496218;28;20040;-71
2023/05/09 05:35:28;;;;;;;5.57;2.65;;;;;;;11.23;85.54;100594.88;10496113;28;20047;-71
2023/05/09 05:40:29;;;;;;;6.70;2.85;;;;;;;11.29;85.22;100594.22;10489211;28;20063;-71
2023/05/09 05:45:30;;;;;;;6.35;2.78;;;;;;;11.51;84.62;100598.00;10467918;28;20060;-73
2023/05/09 05:50:31;;;;;;;10.10;2.80;;;;;;;11.79;83.17;100583.34;10468648;28;20041;-72
2023/05/09 05:55:31;;;;;;;8.35;2.92;;;;;;;11.68;82.61;100521.66;10453038;28;20052;-72
2023/05/09 06:00:32;;;;;;;4.95;2.47;;;;;;;12.31;81.74;100621.97;10454689;28;20047;-72
2023/05/09 06:05:33;;;;;;;5.75;2.58;;;;;;;12.35;81.71;100623.28;10454225;28;20580;-71
2023/05/09 06:10:34;;;;;;;5.55;2.88;;;;;;;12.43;81.45;100614.44;10464058;28;20043;-72
2023/05/09 06:15:35;;;;;;;6.57;2.33;;;;;;;12.56;80.40;100610.22;10496914;28;20530;-74
2023/05/09 06:20:35;;;;;;;6.45;2.50;;;;;;;13.14;78.97;100634.69;10479088;28;20049;-72
2023/05/09 06:25:36;;;;;;;6.75;2.40;;;;;;;13.53;77.29;100622.25;10479222;28;20047;-72
2023/05/09 06:30:37;;;;;;;6.10;2.28;;;;;;;14.51;75.06;100615.84;10485456;28;20126;-71
2023/05/09 06:35:38;;;;;;;4.63;2.10;;;;;;;14.26;73.03;100446.97;10484537;28;20045;-72
2023/05/09 06:40:38;;;;;;;7.15;2.55;;;;;;;15.09;72.80;100608.69;10482462;28;20401;-71
2023/05/09 06:45:39;;;;;;;4.55;1.88;;;;;;;15.27;72.22;100605.56;10485354;28;20040;-72
2023/05/09 06:50:40;;;;;;;13.45;2.28;;;;;;;15.15;71.39;100540.22;10477624;28;20097;-71
2023/05/09 06:55:41;;;;;;;6.38;2.08;;;;;;;15.47;69.94;100553.03;10474596;28;20057;-71
2023/05/09 07:00:42;;;;;;;5.85;1.95;;;;;;;15.70;68.58;100512.63;10478853;28;20112;-71
2023/05/09 07:05:43;;;;;;;2.95;1.90;;;;;;;16.16;68.03;100602.31;10495611;28;20045;-72
2023/05/09 07:10:43;;;;;;;4.93;2.10;;;;;;;16.34;67.65;100597.25;10495539;28;20036;-70
2023/05/09 07:15:44;;;;;;;7.35;2.10;;;;;;;16.39;66.92;100586.75;10495712;28;20489;-70
2023/05/09 07:20:45;;;;;;;5.18;1.80;;;;;;;16.34;66.58;100577.66;10498723;28;20135;-72
2023/05/09 07:25:46;;;;;;;3.47;1.85;;;;;;;16.42;65.46;100564.91;10499873;28;20052;-71
2023/05/09 07:30:47;;;;;;;7.95;2.00;;;;;;;16.78;64.99;100536.97;10501418;28;20045;-71
2023/05/09 07:35:48;;;;;;;3.30;1.77;;;;;;;16.71;63.50;100473.56;10501704;28;20040;-71
2023/05/09 07:40:48;;;;;;;5.90;2.47;;;;;;;17.22;63.10;100532.03;10501559;28;20053;-71
2023/05/09 07:45:49;;;;;;;5.15;1.73;;;;;;;17.25;63.04;100534.31;10500493;28;20052;-70
2023/05/09 07:50:50;;;;;;;6.68;1.90;;;;;;;17.53;62.34;100507.25;10500241;28;20131;-72
2023/05/09 07:55:51;;;;;;;6.55;2.17;;;;;;;18.02;61.75;100505.88;10500281;28;20057;-70
2023/05/09 08:00:55;;;;;;;5.65;1.90;;;;;;;17.91;60.74;100490.41;10499919;28;20053;-69
2023/05/09 08:05:56;;;;;;;6.45;2.13;;;;;;;18.21;60.92;100488.00;10499536;28;20136;-69
2023/05/09 08:10:57;;;;;;;5.50;2.08;;;;;;;18.79;59.83;100506.72;10499325;28;20119;-69
2023/05/09 08:15:58;;;;;;;4.35;1.95;;;;;;;18.71;58.53;100463.91;10499017;28;20502;-69
2023/05/09 08:20:59;;;;;;;7.47;2.28;;;;;;;19.35;57.74;100489.69;10498757;28;20052;-69
2023/05/09 08:26:00;;;;;;;9.27;2.60;;;;;;;19.56;56.95;100483.06;10499111;28;20518;-70
2023/05/09 08:31:01;;;;;;;7.40;2.00;;;;;;;19.91;55.71;100490.56;10499621;28;20040;-70
2023/05/09 08:36:03;;;;;;;6.68;2.22;;;;;;;20.11;54.81;100476.00;10497682;28;20040;-72
2023/05/09 08:41:04;;;;;;;6.72;2.10;;;;;;;19.21;54.45;100339.22;10490454;28;20101;-71
2023/05/09 08:46:09;;;;;;;5.90;1.95;;;;;;;19.90;54.25;100451.16;10476197;28;20601;-71
2023/05/09 08:51:10;;;;;;;8.50;2.28;;;;;;;20.39;53.95;100430.34;10461636;28;20047;-69
2023/05/09 08:56:12;;;;;;;3.83;1.85;;;;;;;20.62;52.92;100461.19;10456304;28;20064;-69
2023/05/09 09:01:15;;;;;;;4.47;1.85;;;;;;;21.12;52.63;100445.41;10466374;28;20036;-70
2023/05/09 09:06:17;;;;;;;9.20;2.33;;;;;;;21.47;51.67;100441.88;10496879;28;20040;-70
2023/05/09 09:11:18;;;;;;;6.43;1.50;;;;;;;21.47;50.95;100444.56;10497647;28;20404;-70
2023/05/09 09:16:23;;;;;;;8.27;1.95;;;;;;;21.22;50.28;100444.00;10496533;28;20048;-71
2023/05/09 09:21:25;;;;;;;10.82;1.92;;;;;;;20.45;51.86;100455.59;10497529;28;20044;-71
2023/05/09 09:26:28;;;;;;;30.60;3.30;;;;;;;20.42;51.99;100439.88;10495169;28;20047;-70
2023/05/09 09:31:31;;;;;;;20.27;2.63;;;;;;;20.66;51.20;100440.78;10497460;28;20095;-70
2023/05/09 09:36:33;;;;;;;7.53;2.08;;;;;;;20.52;51.33;100426.66;10484846;28;20496;-71
2023/05/09 09:41:38;;;;;;;10.95;2.00;;;;;;;20.50;51.72;100436.84;10455964;28;20047;-71
2023/05/09 09:46:44;;;;;;;8.45;1.77;;;;;;;20.76;50.69;100427.53;10479231;28;20041;-71
2023/05/09 09:51:50;;;;;;;6.05;1.90;;;;;;;20.69;50.33;100372.81;10483733;28;20048;-69
2023/05/09 09:56:55;;;;;;;15.63;2.20;;;;;;;20.69;51.24;100429.50;10465516;28;20415;-71
2023/05/09 10:02:03;;;;;;;60.15;7.07;;;;;;;20.79;50.94;100383.88;10474081;28;20037;-70
2023/05/09 10:07:07;;;;;;;7.63;1.60;;;;;;;20.33;50.47;100317.16;10473379;28;20400;-70
2023/05/09 10:12:08;;;;;;;13.88;1.92;;;;;;;21.01;50.37;100383.28;10476981;28;20093;-72
2023/05/09 10:17:13;;;;;;;27.40;2.15;;;;;;;21.24;50.09;100407.59;10467999;28;20072;-70
2023/05/09 10:22:16;;;;;;;7.25;1.45;;;;;;;21.62;49.86;100396.22;10472529;28;20381;-71
2023/05/09 10:27:25;;;;;;;6.80;1.63;;;;;;;21.76;48.29;100375.16;10474543;28;20037;-73
2023/05/09 10:32:32;;;;;;;12.75;2.50;;;;;;;21.84;47.81;100407.22;10475963;28;20048;-73
2023/05/09 10:37:34;;;;;;;14.27;2.13;;;;;;;21.74;48.73;100379.97;10472986;28;20045;-72
2023/05/09 10:42:35;;;;;;;6.07;2.15;;;;;;;21.20;48.86;100390.19;10477903;28;20450;-72
2023/05/09 10:47:38;;;;;;;8.93;1.80;;;;;;;21.15;49.57;100399.00;10474493;28;20029;-73
2023/05/09 10:53:07;;;;;;;9.38;1.85;;;;;;;21.39;49.28;100394.44;10478500;28;21370;-74
2023/05/09 10:58:21;;;;;;;14.65;2.28;;;;;;;21.46;48.32;100399.69;10473096;28;20524;-73
2023/05/09 11:03:24;;;;;;;7.93;1.80;;;;;;;21.41;48.99;100386.88;10476326;28;20055;-73
2023/05/09 11:08:29;;;;;;;5.47;1.60;;;;;;;20.95;48.00;100306.72;10475964;28;20086;-74
2023/05/09 11:13:35;;;;;;;4.80;1.77;;;;;;;20.93;48.46;100330.44;10478593;28;20044;-72
2023/05/09 11:18:50;;;;;;;3.95;1.35;;;;;;;21.56;47.44;100393.66;10476066;28;20071;-73
2023/05/09 11:23:50;;;;;;;12.25;2.58;;;;;;;20.75;48.96;100299.81;10476584;28;20048;-73
2023/05/09 11:28:53;;;;;;;5.70;1.92;;;;;;;21.06;49.05;100367.19;10482115;28;20041;-73
2023/05/09 11:34:03;;;;;;;4.03;1.40;;;;;;;21.39;48.72;100380.09;10478365;28;20060;-73
2023/05/09 11:39:08;;;;;;;9.60;1.75;;;;;;;21.41;48.31;100372.56;10474666;28;20043;-72
2023/05/09 11:44:13;;;;;;;15.27;2.08;;;;;;;21.30;48.59;100370.66;10475319;28;20090;-73
2023/05/09 11:49:15;;;;;;;21.98;2.75;;;;;;;20.61;49.75;100289.50;10477255;28;20045;-74
2023/05/09 11:54:16;;;;;;;10.07;1.92;;;;;;;20.70;49.92;100360.97;10478818;28;20036;-74
2023/05/09 11:59:19;;;;;;;12.80;2.50;;;;;;;20.09;50.56;100276.66;10479920;28;20071;-74
2023/05/09 12:04:20;;;;;;;7.28;1.67;;;;;;;20.30;50.30;100329.22;10495429;28;20451;-73
2023/05/09 12:09:21;;;;;;;10.27;2.10;;;;;;;20.40;50.55;100355.63;10498672;28;20032;-74
2023/05/09 12:14:32;;;;;;;6.43;1.65;;;;;;;20.44;50.64;100367.63;10484080;28;20037;-74
2023/05/09 12:19:33;;;;;;;6.53;1.90;;;;;;;20.63;50.44;100362.97;10480473;28;20116;-75
2023/05/09 12:24:36;;;;;;;5.90;1.63;;;;;;;20.84;50.23;100350.75;10479243;28;20032;-72
2023/05/09 12:29:39;;;;;;;5.80;1.67;;;;;;;20.61;50.52;100330.81;10495551;28;20036;-72
2023/05/09 12:34:41;;;;;;;8.40;2.07;;;;;;;20.64;50.60;100341.16;10494969;28;20047;-72
2023/05/09 12:39:41;;;;;;;8.50;2.30;;;;;;;20.73;50.71;100347.84;10498498;28;20076;-72
2023/05/09 12:44:48;;;;;;;14.57;2.38;;;;;;;20.71;50.37;100357.22;10499114;28;20068;-72
2023/05/09 12:49:49;;;;;;;5.47;1.80;;;;;;;20.16;51.06;100272.00;10498746;28;20399;-72
2023/05/09 12:54:52;;;;;;;14.73;2.25;;;;;;;20.60;50.96;100358.03;10497370;28;20044;-72
2023/05/09 13:00:05;;;;;;;14.90;2.42;;;;;;;20.54;51.35;100378.69;10497937;28;20044;-72
2023/05/09 13:05:11;;;;;;;13.50;2.28;;;;;;;19.99;51.34;100296.13;10497842;28;20054;-72
2023/05/09 13:10:20;;;;;;;9.95;2.13;;;;;;;20.43;51.70;100368.66;10497058;28;20403;-72
2023/05/09 13:15:22;;;;;;;8.02;1.80;;;;;;;20.25;51.77;100370.41;10486696;28;20558;-71
2023/05/09 13:20:22;;;;;;;5.70;1.75;;;;;;;20.21;52.32;100379.19;10458261;28;20055;-72
2023/05/09 13:25:23;;;;;;;7.32;1.90;;;;;;;20.21;52.10;100380.00;10454322;28;20124;-72
2023/05/09 13:30:24;;;;;;;6.65;2.08;;;;;;;20.19;52.16;100374.03;10454282;28;20055;-73
2023/05/09 13:35:25;;;;;;;10.63;2.15;;;;;;;20.28;51.85;100385.28;10453506;28;20033;-72
2023/05/09 13:40:26;;;;;;;7.47;1.75;;;;;;;20.33;51.86;100380.03;10455020;28;20532;-71
2023/05/09 13:45:27;;;;;;;11.65;2.33;;;;;;;20.40;51.95;100375.34;10454602;28;20083;-72
2023/05/09 13:50:28;;;;;;;27.33;2.40;;;;;;;20.51;51.95;100389.91;10464478;28;20047;-72
2023/05/09 13:55:29;;;;;;;14.85;2.78;;;;;;;20.13;52.22;100326.38;10454913;28;20060;-72
2023/05/09 14:00:30;;;;;;;10.02;2.22;;;;;;;20.28;52.36;100390.66;10457313;28;20143;-73
2023/05/09 14:05:31;;;;;;;9.02;2.30;;;;;;;20.06;52.72;100375.03;10479125;28;20131;-72
2023/05/09 14:10:32;;;;;;;16.77;7.05;;;;;;;19.91;52.95;100371.91;10484220;28;20500;-73
2023/05/09 14:15:33;;;;;;;10.05;2.33;;;;;;;19.60;53.21;100354.06;10486411;28;20037;-73
2023/05/09 14:20:36;;;;;;;19.95;4.85;;;;;;;19.63;53.59;100390.53;10488700;28;20049;-74
2023/05/09 14:25:36;;;;;;;6.88;3.17;;;;;;;19.35;54.01;100349.63;10463372;28;20033;-73
2023/05/09 14:30:37;;;;;;;17.48;2.53;;;;;;;19.19;53.94;100333.22;10472607;28;20397;-73
2023/05/09 14:35:38;;;;;;;10.35;2.67;;;;;;;19.47;54.58;100391.94;10473906;28;20047;-73
2023/05/09 14:40:39;;;;;;;19.33;8.65;;;;;;;19.34;54.87;100376.75;10485190;28;20045;-73
2023/05/09 14:45:39;;;;;;;12.13;3.97;;;;;;;19.32;54.88;100390.44;10481635;28;20116;-74
2023/05/09 14:50:40;;;;;;;21.85;6.72;;;;;;;18.64;55.62;100305.19;10481659;28;20043;-73
2023/05/09 14:55:41;;;;;;;13.85;5.72;;;;;;;19.07;55.78;100382.44;10480194;28;20053;-74
2023/05/09 15:00:42;;;;;;;15.98;7.30;;;;;;;18.57;55.93;100317.88;10480118;28;20483;-74
2023/05/09 15:05:43;;;;;;;14.10;7.13;;;;;;;18.99;56.13;100396.19;10487509;28;20040;-72
2023/05/09 15:10:45;;;;;;;13.60;6.75;;;;;;;18.86;56.20;100399.00;10483956;28;20032;-73
2023/05/09 15:15:46;;;;;;;15.32;5.15;;;;;;;18.78;56.45;100404.66;10481202;28;20040;-71
2023/05/09 15:20:46;;;;;;;12.68;4.40;;;;;;;17.67;56.70;100234.00;10469405;28;20139;-72
2023/05/09 15:25:47;;;;;;;10.98;3.60;;;;;;;18.43;56.98;100375.53;10501154;28;20040;-74
2023/05/09 15:30:48;;;;;;;19.70;9.90;;;;;;;18.47;57.34;100382.13;10501611;28;20032;-73
2023/05/09 15:35:49;;;;;;;30.73;18.05;;;;;;;18.08;57.26;100324.09;10493107;28;20052;-73
2023/05/09 15:40:49;;;;;;;28.83;17.33;;;;;;;18.55;57.44;100406.06;10459733;28;20044;-72
2023/05/09 15:45:50;;;;;;;13.23;4.35;;;;;;;18.48;57.30;100413.34;10457886;28;20126;-72
2023/05/09 15:50:51;;;;;;;10.68;2.65;;;;;;;18.38;57.34;100421.91;10458887;28;20033;-73
2023/05/09 15:55:52;;;;;;;11.55;2.83;;;;;;;18.12;57.73;100393.31;10458883;28;20143;-73
2023/05/09 16:00:53;;;;;;;8.63;2.50;;;;;;;18.19;58.49;100418.31;10457234;28;20128;-75
2023/05/09 16:05:54;;;;;;;10.80;2.72;;;;;;;17.97;59.37;100425.88;10457588;28;20052;-73
2023/05/09 16:10:55;;;;;;;16.52;3.60;;;;;;;17.81;60.09;100433.59;10486274;28;20082;-73
2023/05/09 16:15:56;;;;;;;9.68;2.53;;;;;;;17.57;60.58;100430.56;10479167;28;20044;-74
2023/05/09 16:20:57;;;;;;;10.00;2.60;;;;;;;17.50;61.03;100441.34;10459217;28;20044;-73
2023/05/09 16:25:57;;;;;;;6.20;2.03;;;;;;;17.07;61.47;100398.03;10490678;28;20588;-70
2023/05/09 16:31:03;;;;;;;9.85;2.20;;;;;;;17.29;62.23;100442.41;10494183;28;20545;-71
2023/05/09 16:36:04;;;;;;;7.05;2.63;;;;;;;17.13;62.47;100447.38;10494638;28;20098;-71
2023/05/09 16:41:05;;;;;;;24.42;7.85;;;;;;;17.02;62.82;100435.41;10459578;28;20136;-71
2023/05/09 16:46:06;;;;;;;17.88;6.97;;;;;;;16.99;63.11;100455.47;10457070;28;20469;-72
2023/05/09 16:51:06;;;;;;;12.65;5.30;;;;;;;17.06;63.65;100474.25;10456047;28;20063;-71
2023/05/09 16:56:09;;;;;;;10.63;3.60;;;;;;;16.96;63.80;100474.66;10455650;28;20560;-72
2023/05/09 17:01:10;;;;;;;8.68;2.88;;;;;;;16.86;64.22;100483.09;10470963;28;20436;-70
2023/05/09 17:06:11;;;;;;;8.77;2.70;;;;;;;16.83;64.62;100494.25;10455710;28;20044;-70
2023/05/09 17:11:12;;;;;;;10.57;2.15;;;;;;;16.82;65.12;100486.41;10456479;28;20047;-72
2023/05/09 17:16:13;;;;;;;8.43;2.05;;;;;;;16.78;65.22;100503.94;10456409;28;20143;-71
2023/05/09 17:21:14;;;;;;;9.50;1.73;;;;;;;16.75;65.42;100510.53;10456345;28;20047;-69
2023/05/09 17:26:15;;;;;;;11.07;2.22;;;;;;;16.24;65.70;100437.81;10452690;28;20051;-71
2023/05/09 17:31:16;;;;;;;11.38;2.92;;;;;;;16.62;66.09;100505.94;10454369;28;20044;-69
2023/05/09 17:36:17;;;;;;;8.50;1.80;;;;;;;16.07;66.57;100424.78;10455048;28;20408;-73
2023/05/09 17:41:17;;;;;;;5.07;1.70;;;;;;;16.52;67.06;100516.25;10455341;28;20102;-72
2023/05/09 17:46:18;;;;;;;7.50;2.22;;;;;;;16.01;67.38;100435.50;10453526;28;20116;-72
2023/05/09 17:51:19;;;;;;;6.00;1.92;;;;;;;16.41;67.45;100511.47;10454998;28;20045;-73
2023/05/09 17:56:21;;;;;;;9.77;2.38;;;;;;;15.84;67.73;100418.94;10454540;28;20111;-72
2023/05/09 18:01:22;;;;;;;4.63;1.77;;;;;;;16.43;67.90;100518.28;10455059;28;20040;-73
2023/05/09 18:06:23;;;;;;;6.65;2.30;;;;;;;16.35;68.20;100513.09;10454780;28;20451;-74
2023/05/09 18:11:23;;;;;;;9.30;2.42;;;;;;;16.18;68.24;100490.34;10453792;28;20599;-73
2023/05/09 18:16:24;;;;;;;8.18;2.20;;;;;;;16.09;68.58;100500.44;10453691;28;20033;-73
2023/05/09 18:21:25;;;;;;;6.38;2.17;;;;;;;15.98;68.79;100485.78;10454811;28;20037;-73
2023/05/09 18:26:27;;;;;;;6.82;2.35;;;;;;;15.93;69.03;100508.81;10454706;28;20047;-74
2023/05/09 18:31:30;;;;;;;7.43;2.90;;;;;;;15.80;69.35;100506.91;10454241;28;20066;-73
2023/05/09 18:36:30;;;;;;;12.32;2.10;;;;;;;15.63;69.37;100497.50;10453475;28;20128;-72
2023/05/09 18:41:32;;;;;;;8.02;2.00;;;;;;;15.66;69.33;100502.47;10453446;28;20140;-72
2023/05/09 18:46:33;;;;;;;7.63;2.03;;;;;;;15.51;69.38;100483.84;10453332;28;20513;-72
2023/05/09 18:51:34;;;;;;;9.70;2.28;;;;;;;15.59;69.15;100506.97;10453581;28;20069;-72
2023/05/09 18:56:38;;;;;;;14.48;2.60;;;;;;;15.57;69.31;100511.69;10453614;28;20126;-72
2023/05/09 19:01:41;;;;;;;8.40;2.13;;;;;;;15.41;69.26;100488.72;10452974;28;20132;-72
2023/05/09 19:06:42;;;;;;;9.50;2.47;;;;;;;15.41;69.49;100510.16;10454248;28;20045;-72
2023/05/09 19:11:43;;;;;;;7.47;2.17;;;;;;;15.26;70.06;100512.94;10452772;28;20047;-72
2023/05/09 19:16:44;;;;;;;17.95;2.95;;;;;;;15.02;70.73;100506.16;10452859;28;20147;-71
2023/05/09 19:21:45;;;;;;;8.60;3.00;;;;;;;14.79;71.42;100479.59;10452601;28;20117;-72
2023/05/09 19:26:46;;;;;;;5.85;2.05;;;;;;;14.86;71.89;100496.53;10460869;28;20428;-72
2023/05/09 19:31:47;;;;;;;7.55;2.13;;;;;;;14.79;72.12;100499.16;10460194;28;20044;-72
2023/05/09 19:36:48;;;;;;;11.65;2.30;;;;;;;14.56;72.35;100469.91;10460014;28;20037;-72
2023/05/09 19:41:48;;;;;;;5.95;2.10;;;;;;;14.56;72.61;100490.47;10460488;28;20036;-72
2023/05/09 19:46:49;;;;;;;4.10;2.10;;;;;;;14.48;73.32;100504.78;10459639;28;20508;-72
2023/05/09 19:51:50;;;;;;;8.00;2.42;;;;;;;14.24;74.08;100494.41;10460005;28;20041;-72
2023/05/09 19:56:51;;;;;;;5.63;2.15;;;;;;;13.77;74.41;100458.34;10458398;28;20052;-72
2023/05/09 20:01:51;;;;;;;7.18;2.17;;;;;;;13.76;75.12;100484.22;10458513;28;20065;-72
2023/05/09 20:06:53;;;;;;;10.30;2.20;;;;;;;13.74;75.38;100509.44;10458287;28;20044;-72
2023/05/09 20:11:53;;;;;;;5.63;2.40;;;;;;;13.47;75.98;100501.88;10458964;28;20037;-72
2023/05/09 20:16:55;;;;;;;10.18;2.72;;;;;;;13.40;76.98;100510.78;10458288;28;20037;-72
2023/05/09 20:21:56;;;;;;;7.10;2.70;;;;;;;13.35;76.79;100505.19;10457738;28;20033;-71
2023/05/09 20:26:57;;;;;;;7.68;2.45;;;;;;;13.29;76.77;100490.72;10458261;28;20051;-71
2023/05/09 20:31:58;;;;;;;24.33;3.25;;;;;;;13.24;77.03;100479.72;10458539;28;20032;-71
2023/05/09 20:36:59;;;;;;;10.52;2.40;;;;;;;13.29;77.07;100501.38;10457885;28;20057;-72
2023/05/09 20:42:01;;;;;;;9.32;2.65;;;;;;;13.20;77.76;100492.59;10456837;28;20049;-72
2023/05/09 20:47:01;;;;;;;10.63;2.35;;;;;;;13.16;78.06;100464.66;10456755;28;20037;-72
2023/05/09 20:52:02;;;;;;;6.57;2.60;;;;;;;13.00;77.63;100436.28;10457094;28;20044;-72
2023/05/09 20:57:03;;;;;;;10.77;3.05;;;;;;;13.12;77.58;100476.66;10455389;28;20049;-72
2023/05/09 21:02:04;;;;;;;14.38;4.43;;;;;;;13.05;77.88;100473.09;10457328;28;20508;-72
2023/05/09 21:07:05;;;;;;;9.52;3.75;;;;;;;12.42;78.02;100373.00;10456526;28;20041;-72
2023/05/09 21:12:06;;;;;;;15.63;4.45;;;;;;;12.79;78.78;100460.97;10455637;28;20526;-72
2023/05/09 21:17:07;;;;;;;10.55;4.20;;;;;;;12.72;79.33;100485.84;10456305;28;20048;-71
2023/05/09 21:22:08;;;;;;;11.48;4.70;;;;;;;11.61;80.04;100340.59;10456070;28;20072;-72
2023/05/09 21:27:09;;;;;;;9.48;3.65;;;;;;;12.43;80.77;100482.06;10454597;28;20041;-72
2023/05/09 21:32:10;;;;;;;9.02;3.67;;;;;;;12.31;80.42;100489.63;10463719;28;20041;-71
2023/05/09 21:37:10;;;;;;;10.80;3.60;;;;;;;12.14;80.74;100477.41;10489333;28;20049;-72
2023/05/09 21:42:11;;;;;;;10.30;4.10;;;;;;;12.01;80.96;100471.81;10454821;28;20037;-72
2023/05/09 21:47:12;;;;;;;9.23;4.13;;;;;;;11.92;81.77;100471.03;10475454;28;20047;-71
2023/05/09 21:52:13;;;;;;;9.55;3.88;;;;;;;11.76;81.90;100473.75;10496507;28;20037;-72
2023/05/09 21:57:13;;;;;;;10.50;4.40;;;;;;;11.46;82.55;100441.59;10495240;28;20412;-71
2023/05/09 22:02:14;;;;;;;11.45;3.90;;;;;;;11.21;82.50;100443.47;10472978;28;20040;-72
2023/05/09 22:07:15;;;;;;;6.75;3.00;;;;;;;11.26;82.78;100461.56;10453898;28;20037;-71
2023/05/09 22:12:16;;;;;;;10.70;3.85;;;;;;;11.26;83.41;100472.22;10454524;28;20072;-72
2023/05/09 22:17:16;;;;;;;8.63;3.92;;;;;;;11.08;84.06;100448.47;10455444;28;20041;-72
2023/05/09 22:22:17;;;;;;;7.70;3.45;;;;;;;11.09;84.81;100472.22;10453941;28;20045;-72
2023/05/09 22:27:18;;;;;;;14.65;3.97;;;;;;;10.86;85.13;100477.41;10453676;28;20037;-71
2023/05/09 22:32:19;;;;;;;9.18;3.63;;;;;;;10.83;85.99;100480.41;10453439;28;20528;-71
2023/05/09 22:37:20;;;;;;;11.48;3.70;;;;;;;10.72;85.55;100444.34;10453402;28;20044;-71
2023/05/09 22:42:21;;;;;;;8.00;3.67;;;;;;;10.85;85.40;100466.94;10454678;28;20118;-71
2023/05/09 22:47:22;;;;;;;9.35;3.65;;;;;;;10.76;84.95;100455.47;10453838;28;20064;-72
2023/05/09 22:52:22;;;;;;;7.55;3.55;;;;;;;10.60;85.18;100443.03;10453046;28;20045;-72
2023/05/09 22:57:23;;;;;;;9.57;3.00;;;;;;;10.89;84.75;100473.59;10456624;28;20059;-72
2023/05/09 23:02:24;;;;;;;7.93;3.30;;;;;;;10.97;84.59;100463.75;10461672;28;20123;-72